Time;durP1;ratioP1;P1;durP2;ratioP2;P2;SDS_P1;SDS_P2;PMS_P1;PMS_P2;Temp;Humidity;BMP_temperature;BMP_pressure;BME280_temperature;BME280_humidity;BME280_pressure;Samples;Min_cycle;Max_cycle;Signal;HPM_P1;HPM_P2
2021/12/21 00:03:28;;;;;;;7.68;2.80;;;;;;;-1.78;95.26;100769.78;8145782;29;20055;-81
2021/12/21 00:07:29;;;;;;;9.65;3.08;;;;;;;-1.80;95.18;100757.44;8157991;29;20032;-80
2021/12/21 00:11:29;;;;;;;7.78;3.22;;;;;;;-1.78;94.79;100760.84;8152945;29;20044;-81
2021/12/21 00:24:12;;;;;;;13.73;4.90;;;;;;;-1.85;94.83;100747.91;8173704;29;20043;-80
2021/12/21 00:28:13;;;;;;;7.40;2.42;;;;;;;-1.84;94.83;100741.50;8158865;29;20056;-82
2021/12/21 00:32:13;;;;;;;6.40;2.20;;;;;;;-1.81;95.33;100742.19;8136525;29;20486;-82
2021/12/21 00:36:16;;;;;;;6.90;1.67;;;;;;;-1.83;94.71;100742.34;8153634;29;20048;-82
2021/12/21 00:40:18;;;;;;;9.50;2.58;;;;;;;-1.83;94.81;100737.81;8155873;29;20119;-81
2021/12/21 00:44:20;;;;;;;9.37;3.00;;;;;;;-1.82;95.10;100735.94;8158835;29;20046;-82
2021/12/21 00:48:27;;;;;;;8.27;2.53;;;;;;;-1.82;95.18;100746.75;8139909;29;20069;-82
2021/12/21 00:52:27;;;;;;;7.82;2.38;;;;;;;-1.86;94.78;100738.09;8153540;29;20067;-82
2021/12/21 00:56:28;;;;;;;5.05;2.10;;;;;;;-1.90;95.04;100739.41;8143435;29;20062;-81
2021/12/21 01:00:28;;;;;;;8.77;2.50;;;;;;;-1.89;95.52;100730.28;8160659;29;20055;-79
2021/12/21 01:04:35;;;;;;;9.93;2.38;;;;;;;-1.89;94.87;100729.44;8140149;29;20453;-81
2021/12/21 01:08:54;;;;;;;9.68;2.72;;;;;;;-1.94;95.13;100716.34;8147794;29;20116;-79
2021/12/21 01:13:11;;;;;;;9.30;2.28;;;;;;;-1.95;95.37;100719.22;8152186;29;20086;-80
2021/12/21 01:21:19;;;;;;;7.63;1.88;;;;;;;-2.01;95.30;100720.66;8155249;29;20040;-82
2021/12/21 01:25:34;;;;;;;7.80;2.70;;;;;;;-2.00;95.43;100710.69;8155887;29;20454;-81
2021/12/21 01:37:53;;;;;;;8.18;2.25;;;;;;;-2.01;95.07;100711.72;8154966;29;20491;-82
2021/12/21 01:50:44;;;;;;;7.25;2.45;;;;;;;-2.04;95.66;100722.81;8149893;29;20130;-81
2021/12/21 01:54:46;;;;;;;7.38;2.00;;;;;;;-2.06;95.70;100712.13;8142705;29;20051;-81
2021/12/21 01:58:46;;;;;;;8.38;2.72;;;;;;;-2.05;95.23;100711.16;8157038;29;20050;-82
2021/12/21 02:02:47;;;;;;;6.07;3.00;;;;;;;-2.08;95.46;100717.69;8142255;29;20055;-82
2021/12/21 02:06:49;;;;;;;8.02;2.40;;;;;;;-2.11;95.29;100709.03;8146675;29;20064;-79
2021/12/21 02:10:49;;;;;;;5.28;2.38;;;;;;;-2.15;95.54;100707.63;8157484;29;20051;-81
2021/12/21 02:14:57;;;;;;;12.73;2.88;;;;;;;-2.20;95.72;100699.97;8160658;29;20046;-81
2021/12/21 02:19:14;;;;;;;13.10;3.53;;;;;;;-2.25;95.65;100704.09;8157696;29;20044;-81
2021/12/21 02:23:20;;;;;;;6.25;2.47;;;;;;;-2.30;96.39;100699.97;8178163;29;20098;-82
2021/12/21 02:27:41;;;;;;;7.80;2.92;;;;;;;-2.32;96.05;100685.78;8150126;29;20051;-81
2021/12/21 02:31:48;;;;;;;7.78;3.05;;;;;;;-2.32;95.87;100701.09;8169046;28;20039;-82
2021/12/21 02:35:49;;;;;;;8.90;3.13;;;;;;;-2.32;96.77;100701.09;8182303;29;20052;-81
2021/12/21 02:39:50;;;;;;;8.15;3.80;;;;;;;-2.35;97.53;100693.28;8161099;29;20663;-81
2021/12/21 02:43:50;;;;;;;12.02;3.50;;;;;;;-2.36;97.05;100705.94;8137485;29;20518;-81
2021/12/21 02:47:51;;;;;;;9.40;4.00;;;;;;;-2.39;96.60;100692.72;8129687;29;20048;-81
2021/12/21 02:51:51;;;;;;;7.93;3.33;;;;;;;-2.41;96.92;100696.56;8129650;29;20055;-80
2021/12/21 02:55:52;;;;;;;9.45;4.30;;;;;;;-2.42;97.04;100694.88;8146049;29;20052;-81
2021/12/21 02:59:52;;;;;;;7.75;3.40;;;;;;;-2.43;97.10;100694.03;8149800;29;20121;-81
2021/12/21 03:03:53;;;;;;;7.78;3.92;;;;;;;-2.46;97.31;100694.31;8129307;29;20058;-80
2021/12/21 03:08:13;;;;;;;11.73;4.00;;;;;;;-2.47;97.22;100691.75;8142417;29;20044;-81
2021/12/21 03:16:23;;;;;;;9.05;4.45;;;;;;;-2.51;96.98;100683.09;8140395;29;20104;-81
2021/12/21 03:20:24;;;;;;;12.65;3.72;;;;;;;-2.52;96.67;100681.41;8141615;29;20047;-81
2021/12/21 03:24:25;;;;;;;13.60;4.30;;;;;;;-2.55;97.61;100681.69;8159883;29;20048;-80
2021/12/21 03:28:26;;;;;;;12.27;3.90;;;;;;;-2.56;97.39;100682.66;8132429;29;20498;-81
2021/12/21 03:32:26;;;;;;;13.02;4.40;;;;;;;-2.55;97.97;100687.09;8156248;29;20052;-81
2021/12/21 03:36:27;;;;;;;7.82;3.75;;;;;;;-2.57;97.69;100675.56;8155545;29;20036;-80
2021/12/21 03:40:31;;;;;;;10.10;4.57;;;;;;;-2.58;98.01;100673.88;8168159;29;20099;-81
2021/12/21 03:44:32;;;;;;;10.45;4.20;;;;;;;-2.61;98.00;100687.66;8166555;29;20454;-81
2021/12/21 03:48:33;;;;;;;13.32;5.53;;;;;;;-2.65;97.43;100678.13;8140426;29;20126;-80
2021/12/21 03:52:34;;;;;;;17.42;4.72;;;;;;;-2.65;98.02;100689.78;8164361;29;20044;-80
2021/12/21 03:56:41;;;;;;;10.20;4.00;;;;;;;-2.67;97.64;100688.25;8160023;29;20127;-81
2021/12/21 04:00:42;;;;;;;10.68;3.30;;;;;;;-2.70;98.37;100686.69;8150529;29;20035;-80
2021/12/21 04:04:43;;;;;;;10.13;4.53;;;;;;;-2.71;98.35;100682.25;8156110;29;20111;-81
2021/12/21 04:08:44;;;;;;;9.90;3.78;;;;;;;-2.71;98.30;100689.50;8139981;29;20051;-81
2021/12/21 04:12:44;;;;;;;12.02;4.13;;;;;;;-2.70;98.54;100693.91;8139343;29;20064;-79
2021/12/21 04:16:45;;;;;;;12.65;4.70;;;;;;;-2.72;98.56;100698.59;8153490;29;20047;-81
2021/12/21 04:20:45;;;;;;;14.15;4.88;;;;;;;-2.73;98.56;100686.13;8152359;29;20043;-80
2021/12/21 04:24:46;;;;;;;9.40;4.13;;;;;;;-2.71;99.12;100686.81;8168542;29;20054;-80
2021/12/21 04:28:47;;;;;;;9.13;3.40;;;;;;;-2.71;98.69;100687.66;8145028;29;20087;-80
2021/12/21 04:32:47;;;;;;;9.50;3.55;;;;;;;-2.72;98.47;100677.88;8128455;29;20044;-80
2021/12/21 04:36:47;;;;;;;12.82;3.72;;;;;;;-2.74;98.74;100677.13;8135924;29;20058;-81
2021/12/21 04:40:54;;;;;;;7.75;3.83;;;;;;;-2.74;99.29;100669.06;8149750;29;20044;-81
2021/12/21 04:44:55;;;;;;;11.70;4.10;;;;;;;-2.75;98.77;100673.59;8145401;29;20063;-82
2021/12/21 04:48:55;;;;;;;11.55;4.05;;;;;;;-2.75;99.15;100679.00;8145416;29;20063;-81
2021/12/21 04:52:56;;;;;;;5.25;2.72;;;;;;;-2.76;98.73;100677.31;8146785;29;20119;-81
2021/12/21 04:56:56;;;;;;;6.45;3.28;;;;;;;-2.78;98.76;100668.50;8134193;29;20040;-81
2021/12/21 05:00:57;;;;;;;8.07;4.32;;;;;;;-2.78;98.53;100663.09;8134232;29;20127;-81
2021/12/21 05:04:57;;;;;;;9.77;4.32;;;;;;;-2.77;98.58;100669.34;8148738;29;20040;-81
2021/12/21 05:09:09;;;;;;;9.05;5.82;;;;;;;-2.75;98.54;100673.59;8113782;29;20040;-80
2021/12/21 05:13:10;;;;;;;13.57;5.63;;;;;;;-2.75;98.67;100668.19;8144855;29;20051;-81
2021/12/21 05:17:10;;;;;;;12.88;5.07;;;;;;;-2.74;99.40;100669.06;8152784;29;20754;-80
2021/12/21 05:21:11;;;;;;;9.45;4.28;;;;;;;-2.76;98.80;100674.59;8160528;29;20044;-80
2021/12/21 05:25:11;;;;;;;6.65;2.63;;;;;;;-2.78;98.96;100673.03;8162546;29;20135;-80
2021/12/21 05:29:12;;;;;;;6.00;3.00;;;;;;;-2.79;98.72;100680.28;8146352;29;20059;-81
2021/12/21 05:33:14;;;;;;;8.50;3.13;;;;;;;-2.80;98.71;100675.00;8151726;29;20517;-81
2021/12/21 05:37:18;;;;;;;11.98;3.70;;;;;;;-2.82;98.56;100682.41;8134271;29;20532;-81
2021/12/21 05:41:27;;;;;;;7.50;3.30;;;;;;;-2.79;99.03;100685.69;8144857;29;20075;-81
2021/12/21 05:45:28;;;;;;;11.15;3.60;;;;;;;-2.78;98.42;100675.75;8151060;29;20310;-81
2021/12/21 05:49:28;;;;;;;7.95;3.75;;;;;;;-2.78;98.84;100683.81;8139109;29;20035;-81
2021/12/21 05:53:29;;;;;;;9.50;3.15;;;;;;;-2.80;98.71;100675.88;8133602;29;20055;-81
2021/12/21 05:57:32;;;;;;;7.70;2.63;;;;;;;-2.78;98.88;100689.22;8139380;29;20149;-79
2021/12/21 06:01:33;;;;;;;4.57;2.30;;;;;;;-2.80;99.07;100689.34;8143055;29;20126;-81
2021/12/21 06:05:34;;;;;;;5.80;2.97;;;;;;;-2.80;99.09;100693.91;8139451;29;20054;-81
2021/12/21 06:09:35;;;;;;;4.50;2.42;;;;;;;-2.78;99.55;100691.91;8136992;29;20493;-81
2021/12/21 06:26:22;;;;;;;8.73;3.30;;;;;;;-2.76;100.00;100681.84;8162972;29;20052;-80
2021/12/21 06:30:22;;;;;;;11.63;3.85;;;;;;;-2.71;99.94;100697.59;8126360;29;20074;-81
2021/12/21 06:34:23;;;;;;;9.32;3.90;;;;;;;-2.72;99.70;100687.81;8143866;29;20040;-80
2021/12/21 06:38:26;;;;;;;10.25;4.10;;;;;;;-2.71;99.65;100697.59;8147552;29;20044;-81
2021/12/21 06:42:28;;;;;;;8.05;3.75;;;;;;;-2.71;99.49;100689.50;8157383;29;20051;-81
2021/12/21 06:55:07;;;;;;;9.15;3.60;;;;;;;-2.67;99.45;100696.34;8148432;29;20063;-82
2021/12/21 06:59:08;;;;;;;8.83;3.33;;;;;;;-2.64;100.00;100687.94;8135288;29;20054;-82
2021/12/21 07:03:08;;;;;;;7.07;2.65;;;;;;;-2.62;99.50;100688.63;8128605;29;20413;-82
2021/12/21 07:07:11;;;;;;;8.85;3.53;;;;;;;-2.64;99.75;100683.41;8152537;29;20051;-82
2021/12/21 07:19:43;;;;;;;11.27;5.07;;;;;;;-2.57;99.43;100698.00;8155030;28;20601;-82
2021/12/21 07:23:43;;;;;;;16.83;3.22;;;;;;;-2.57;99.58;100697.16;8153579;29;20043;-81
2021/12/21 07:27:43;;;;;;;10.27;3.25;;;;;;;-2.54;99.34;100686.09;8144979;29;20066;-81
2021/12/21 07:31:45;;;;;;;12.73;4.10;;;;;;;-2.49;99.15;100701.84;8140539;29;20086;-82
2021/12/21 07:35:47;;;;;;;7.63;4.22;;;;;;;-2.48;99.02;100712.50;8151483;29;20094;-81
2021/12/21 07:39:48;;;;;;;12.85;4.30;;;;;;;-2.45;99.72;100709.50;8146113;29;20044;-82
2021/12/21 07:43:48;;;;;;;15.02;4.70;;;;;;;-2.44;98.74;100713.94;8142254;29;20063;-81
2021/12/21 07:47:49;;;;;;;15.25;3.78;;;;;;;-2.43;99.37;100706.69;8129974;29;20036;-81
2021/12/21 07:51:49;;;;;;;8.80;3.10;;;;;;;-2.41;98.46;100708.25;8131439;29;20063;-81
2021/12/21 07:55:50;;;;;;;9.63;2.95;;;;;;;-2.38;98.86;100724.16;8151992;29;20051;-82
2021/12/21 07:59:50;;;;;;;6.75;3.45;;;;;;;-2.33;98.67;100723.69;8159808;29;20044;-82
2021/12/21 08:03:53;;;;;;;7.72;3.40;;;;;;;-2.30;98.24;100721.56;8159523;29;20067;-81
2021/12/21 08:07:57;;;;;;;10.07;4.32;;;;;;;-2.25;97.93;100723.84;8165971;29;20503;-81
2021/12/21 08:16:11;;;;;;;11.73;5.90;;;;;;;-2.18;98.58;100716.84;8143663;29;20043;-81
2021/12/21 08:20:12;;;;;;;9.57;3.77;;;;;;;-2.14;98.46;100725.50;8169964;29;20052;-82
2021/12/21 08:24:13;;;;;;;9.88;3.55;;;;;;;-2.08;97.82;100722.25;8166574;29;20072;-80
2021/12/21 08:28:15;;;;;;;12.67;4.23;;;;;;;-1.98;97.78;100724.91;8145013;29;20055;-80
2021/12/21 08:32:17;;;;;;;17.45;7.50;;;;;;;-1.91;97.65;100731.44;8127937;29;20047;-79
2021/12/21 08:36:18;;;;;;;22.13;10.63;;;;;;;-1.84;97.36;100725.31;8166183;29;20375;-80
2021/12/21 08:40:22;;;;;;;16.05;8.60;;;;;;;-1.75;96.96;100726.28;8165451;29;20249;-78
2021/12/21 08:44:26;;;;;;;8.18;6.13;;;;;;;-1.64;96.74;100717.09;8155297;29;20063;-79
2021/12/21 08:48:30;;;;;;;10.45;3.30;;;;;;;-1.54;96.42;100719.78;8151021;29;20043;-80
2021/12/21 08:52:34;;;;;;;9.57;3.10;;;;;;;-1.42;96.03;100715.88;8129060;29;20059;-80
2021/12/21 08:56:35;;;;;;;7.63;3.03;;;;;;;-1.32;95.39;100713.13;8149282;29;20082;-80
2021/12/21 09:00:35;;;;;;;7.85;4.28;;;;;;;-1.24;94.62;100719.47;8148991;29;20048;-81
2021/12/21 09:04:39;;;;;;;10.52;4.82;;;;;;;-1.12;94.70;100730.94;8151020;29;20118;-80
2021/12/21 09:08:40;;;;;;;11.23;5.05;;;;;;;-1.03;94.90;100737.31;8157288;29;20035;-80
2021/12/21 09:12:45;;;;;;;8.02;4.18;;;;;;;-0.95;94.13;100746.34;8139622;29;20107;-81
2021/12/21 09:16:46;;;;;;;10.57;3.85;;;;;;;-0.85;93.75;100748.16;8165054;29;20146;-81
2021/12/21 09:20:47;;;;;;;8.70;3.65;;;;;;;-0.77;92.89;100757.19;8140034;29;20737;-81
2021/12/21 09:24:47;;;;;;;19.45;6.20;;;;;;;-0.65;92.95;100747.00;8156504;29;20048;-81
2021/12/21 09:28:48;;;;;;;16.52;7.25;;;;;;;-0.53;92.59;100745.75;8135986;29;20075;-80
2021/12/21 09:32:51;;;;;;;18.17;9.35;;;;;;;-0.37;92.23;100760.44;8127935;29;20050;-81
2021/12/21 09:36:52;;;;;;;10.75;5.13;;;;;;;-0.28;92.12;100744.09;8148259;29;20063;-79
2021/12/21 09:40:55;;;;;;;12.15;5.90;;;;;;;-0.17;92.00;100744.88;8159676;29;20099;-79
2021/12/21 09:44:56;;;;;;;9.93;4.70;;;;;;;-0.10;90.65;100741.38;8156026;29;20073;-80
2021/12/21 09:48:57;;;;;;;7.88;4.00;;;;;;;0.01;90.81;100737.56;8146445;29;20103;-80
2021/12/21 09:52:57;;;;;;;10.65;3.95;;;;;;;0.10;90.43;100738.47;8152998;29;20409;-80
2021/12/21 09:56:57;;;;;;;11.70;7.10;;;;;;;0.23;89.81;100736.16;8154832;29;20047;-79
2021/12/21 10:00:58;;;;;;;9.88;5.28;;;;;;;0.30;89.09;100720.09;8153386;29;20096;-80
2021/12/21 10:05:02;;;;;;;12.60;4.65;;;;;;;0.40;88.85;100721.69;8146404;29;20454;-79
2021/12/21 10:09:07;;;;;;;10.63;3.47;;;;;;;0.50;87.26;100723.44;8164029;29;20143;-79
2021/12/21 10:13:28;;;;;;;10.25;3.97;;;;;;;0.67;87.32;100720.63;8156892;29;20044;-80
2021/12/21 10:17:33;;;;;;;8.60;4.15;;;;;;;0.86;87.73;100714.13;8151653;29;20062;-78
2021/12/21 10:21:46;;;;;;;10.05;4.40;;;;;;;0.97;87.06;100717.53;8163914;29;20047;-80
2021/12/21 10:26:08;;;;;;;13.50;5.75;;;;;;;1.03;86.15;100716.84;8157822;29;20505;-80
2021/12/21 10:30:13;;;;;;;7.97;4.13;;;;;;;1.00;84.21;100717.19;8141667;29;20498;-80
2021/12/21 10:34:18;;;;;;;8.02;3.55;;;;;;;1.13;85.26;100721.13;8151112;29;20082;-80
2021/12/21 10:38:36;;;;;;;10.27;3.55;;;;;;;1.35;85.05;100710.66;8166427;29;20052;-81
2021/12/21 10:42:47;;;;;;;6.78;3.20;;;;;;;1.41;81.95;100715.41;8151194;29;20044;-81
2021/12/21 10:46:54;;;;;;;8.57;3.25;;;;;;;1.52;82.73;100704.22;8141710;29;20115;-80
2021/12/21 10:50:55;;;;;;;7.20;3.10;;;;;;;1.59;81.83;100705.22;8143264;29;20490;-81
2021/12/21 10:54:56;;;;;;;9.15;3.28;;;;;;;1.57;79.29;100700.97;8156873;29;20046;-80
2021/12/21 10:58:56;;;;;;;11.05;4.10;;;;;;;1.59;79.93;100702.50;8154712;29;20139;-80
2021/12/21 11:02:57;;;;;;;5.93;3.58;;;;;;;1.65;80.38;100705.56;8159255;29;20052;-80
2021/12/21 11:06:57;;;;;;;6.32;2.70;;;;;;;1.70;79.14;100695.06;8130287;29;20462;-81
2021/12/21 11:10:59;;;;;;;8.05;3.35;;;;;;;1.77;79.12;100693.34;8150069;29;20051;-81
2021/12/21 11:15:01;;;;;;;12.07;3.40;;;;;;;1.86;77.80;100696.91;8134151;29;20059;-80
2021/12/21 11:19:02;;;;;;;5.68;2.50;;;;;;;1.94;77.41;100699.63;8172432;29;20103;-81
2021/12/21 11:23:04;;;;;;;9.77;4.82;;;;;;;2.12;77.74;100696.69;8149655;29;20048;-81
2021/12/21 11:27:05;;;;;;;8.57;3.60;;;;;;;2.16;76.78;100687.16;8125152;29;20183;-81
2021/12/21 11:31:07;;;;;;;7.72;3.25;;;;;;;2.15;76.36;100686.31;8151590;29;20036;-81
2021/12/21 11:39:13;;;;;;;7.32;3.15;;;;;;;2.44;76.94;100665.81;8160543;29;20040;-80
2021/12/21 11:43:28;;;;;;;6.97;2.60;;;;;;;2.55;73.12;100659.13;8150075;29;20142;-81
2021/12/21 11:47:47;;;;;;;7.68;3.03;;;;;;;2.68;74.16;100668.44;8143112;29;20040;-80
2021/12/21 11:51:47;;;;;;;7.47;3.90;;;;;;;2.99;75.37;100659.41;8162120;29;20070;-80
2021/12/21 11:55:51;;;;;;;6.18;2.40;;;;;;;3.29;72.63;100657.66;8159987;29;20052;-80
2021/12/21 11:59:52;;;;;;;6.53;3.03;;;;;;;3.92;75.15;100649.28;8153938;29;20066;-80
2021/12/21 12:04:03;;;;;;;7.45;2.65;;;;;;;4.22;70.63;100658.34;8150605;29;20075;-80
2021/12/21 12:08:07;;;;;;;6.57;3.05;;;;;;;4.52;68.13;100656.44;8185592;29;20046;-80
2021/12/21 12:12:17;;;;;;;7.90;3.10;;;;;;;4.64;68.21;100662.28;8154420;29;20074;-81
2021/12/21 12:16:18;;;;;;;8.13;3.60;;;;;;;4.41;70.47;100659.69;8171863;29;20079;-81
2021/12/21 12:20:27;;;;;;;11.93;4.22;;;;;;;3.92;68.64;100652.84;8166822;29;20047;-79
2021/12/21 12:24:37;;;;;;;8.05;3.42;;;;;;;3.99;70.66;100663.91;8166813;29;20074;-80
2021/12/21 12:28:38;;;;;;;6.03;3.33;;;;;;;4.38;68.59;100655.44;8159397;29;20481;-80
2021/12/21 12:32:47;;;;;;;7.82;3.35;;;;;;;4.76;66.40;100653.41;8140651;29;20472;-82
2021/12/21 12:36:52;;;;;;;6.38;3.10;;;;;;;5.19;65.91;100641.69;8165704;29;20059;-80
2021/12/21 12:40:56;;;;;;;6.28;3.15;;;;;;;5.07;64.03;100646.84;8162440;29;20052;-80
2021/12/21 12:45:18;;;;;;;6.40;3.20;;;;;;;4.93;65.13;100637.63;8160713;29;20123;-82
2021/12/21 12:49:25;;;;;;;6.10;3.20;;;;;;;4.33;64.75;100628.72;8157294;29;20207;-81
2021/12/21 12:53:37;;;;;;;11.70;7.45;;;;;;;4.11;66.90;100627.78;8155886;28;20048;-80
2021/12/21 12:57:49;;;;;;;7.82;3.75;;;;;;;3.93;66.89;100643.66;8162014;29;20481;-81
2021/12/21 13:01:50;;;;;;;7.53;3.50;;;;;;;3.96;67.25;100631.53;8139378;29;20055;-81
2021/12/21 13:05:52;;;;;;;7.27;3.10;;;;;;;3.73;65.97;100623.41;8155849;29;20070;-81
2021/12/21 13:10:05;;;;;;;9.80;3.47;;;;;;;3.95;65.85;100622.50;8174160;28;20071;-80
2021/12/21 13:14:08;;;;;;;9.00;3.35;;;;;;;3.85;66.57;100625.50;8167984;29;20066;-81
2021/12/21 13:18:13;;;;;;;4.68;2.55;;;;;;;3.67;65.80;100616.00;8154751;29;20101;-79
2021/12/21 13:22:13;;;;;;;7.35;2.85;;;;;;;3.61;66.65;100618.41;8169309;29;20062;-80
2021/12/21 13:26:14;;;;;;;13.30;6.00;;;;;;;3.35;65.67;100609.78;8147366;29;20047;-79
2021/12/21 13:30:19;;;;;;;9.45;3.67;;;;;;;3.23;67.17;100619.44;8151227;29;20052;-80
2021/12/21 13:34:22;;;;;;;8.40;3.22;;;;;;;2.94;67.29;100621.84;8169405;29;20039;-79
2021/12/21 13:38:28;;;;;;;5.47;2.92;;;;;;;2.83;67.53;100626.88;8164605;29;20131;-79
2021/12/21 13:42:32;;;;;;;7.32;3.03;;;;;;;2.67;68.55;100617.75;8167156;29;20043;-80
2021/12/21 13:46:34;;;;;;;;;;;;;;;2.57;68.30;100614.41;8164288;29;20441;-80
2021/12/21 13:50:34;;;;;;;6.60;2.55;;;;;;;2.52;68.66;100605.94;8157573;29;19930;-80
2021/12/21 13:54:36;;;;;;;8.00;2.75;;;;;;;2.47;68.41;100609.19;8148206;29;20062;-80
2021/12/21 13:58:37;;;;;;;5.03;2.55;;;;;;;2.43;69.18;100609.72;8158752;29;20044;-79
2021/12/21 14:02:42;;;;;;;7.45;3.78;;;;;;;2.28;70.39;100601.44;8151070;29;20046;-80
2021/12/21 14:06:44;;;;;;;7.60;3.33;;;;;;;2.20;69.66;100602.34;8174048;29;20043;-81
2021/12/21 14:10:52;;;;;;;8.23;3.17;;;;;;;2.07;70.42;100604.75;8176907;29;20047;-79
2021/12/21 14:14:52;;;;;;;6.15;3.35;;;;;;;2.03;71.22;100596.13;8155957;29;20153;-80
2021/12/21 14:18:55;;;;;;;4.93;3.20;;;;;;;1.91;71.01;100593.97;8168952;29;20194;-79
2021/12/21 14:22:55;;;;;;;;;;;;;;;1.92;71.44;100603.78;8163992;29;20390;-79
2021/12/21 14:27:09;;;;;;;5.88;3.17;;;;;;;1.92;71.55;100599.19;8157786;29;19919;-80
2021/12/21 14:31:09;;;;;;;12.35;3.38;;;;;;;1.81;73.55;100597.72;8158756;29;20047;-81
2021/12/21 14:35:13;;;;;;;5.60;2.17;;;;;;;1.87;72.51;100606.19;8170034;29;20054;-80
2021/12/21 14:39:16;;;;;;;8.35;3.85;;;;;;;1.77;73.01;100601.78;8155946;29;20055;-80
2021/12/21 14:43:42;;;;;;;9.60;3.83;;;;;;;1.62;73.61;100603.53;8151862;29;20051;-80
2021/12/21 14:47:42;;;;;;;6.88;3.30;;;;;;;1.55;74.12;100605.25;8156337;29;20082;-80
2021/12/21 14:51:50;;;;;;;6.80;3.30;;;;;;;1.48;74.75;100606.94;8145587;29;20044;-80
2021/12/21 14:55:51;;;;;;;10.60;3.83;;;;;;;1.36;75.53;100607.28;8151285;29;20055;-80
2021/12/21 14:59:51;;;;;;;8.40;3.20;;;;;;;1.25;75.88;100602.22;8175782;29;20051;-80
2021/12/21 15:03:52;;;;;;;9.27;4.68;;;;;;;1.08;76.98;100608.66;8149869;29;20054;-79
2021/12/21 15:07:53;;;;;;;7.53;5.15;;;;;;;0.93;77.74;100613.03;8155004;29;20066;-79
2021/12/21 15:11:56;;;;;;;13.35;4.60;;;;;;;0.80;77.52;100614.34;8174012;29;20082;-79
2021/12/21 15:15:57;;;;;;;8.98;4.63;;;;;;;0.64;78.24;100615.19;8157767;29;20058;-79
2021/12/21 15:19:57;;;;;;;11.57;4.07;;;;;;;0.49;78.80;100619.53;8164131;29;20056;-78
2021/12/21 15:24:00;;;;;;;16.05;5.03;;;;;;;0.35;79.36;100621.00;8176408;29;20059;-78
2021/12/21 15:28:01;;;;;;;;;;;;;;;0.16;80.24;100622.13;8153073;29;20042;-78
2021/12/21 15:32:02;;;;;;;6.88;2.95;;;;;;;-0.02;80.37;100611.38;8162643;29;19953;-80
2021/12/21 15:36:03;;;;;;;7.95;3.80;;;;;;;-0.16;81.23;100609.25;8153499;29;20050;-79
2021/12/21 15:40:08;;;;;;;11.40;4.28;;;;;;;-0.31;81.09;100614.41;8166603;29;20043;-78
2021/12/21 15:44:09;;;;;;;10.88;6.30;;;;;;;-0.44;82.73;100613.16;8170650;29;20045;-79
2021/12/21 15:48:09;;;;;;;10.77;4.43;;;;;;;-0.55;82.36;100606.16;8161800;29;20040;-79
2021/12/21 15:52:10;;;;;;;9.68;4.30;;;;;;;-0.66;82.96;100609.94;8157540;29;20043;-78
2021/12/21 15:56:13;;;;;;;10.23;3.38;;;;;;;-0.77;83.34;100610.22;8157466;29;20044;-79
2021/12/21 16:00:17;;;;;;;8.57;4.10;;;;;;;-0.90;83.33;100605.19;8142378;29;20074;-79
2021/12/21 16:04:19;;;;;;;9.10;3.70;;;;;;;-1.03;84.69;100605.59;8165787;29;20127;-78
2021/12/21 16:08:20;;;;;;;8.02;3.70;;;;;;;-1.15;84.73;100606.84;8174531;28;20043;-78
2021/12/21 16:12:21;;;;;;;9.55;4.15;;;;;;;-1.23;84.98;100612.16;8169362;28;20048;-78
2021/12/21 16:16:21;;;;;;;11.13;4.47;;;;;;;-1.33;85.88;100609.53;8146089;29;20042;-78
2021/12/21 16:20:25;;;;;;;13.63;4.85;;;;;;;-1.38;86.70;100620.78;8165302;29;20043;-78
2021/12/21 16:24:25;;;;;;;9.88;4.53;;;;;;;-1.42;87.21;100614.00;8163488;29;20446;-79
2021/12/21 16:28:26;;;;;;;10.45;4.22;;;;;;;-1.46;87.03;100620.72;8146222;29;20044;-79
2021/12/21 16:32:30;;;;;;;11.23;4.95;;;;;;;-1.50;87.51;100622.00;8156581;29;20043;-78
2021/12/21 16:36:32;;;;;;;10.15;4.40;;;;;;;-1.55;88.81;100620.75;8135465;29;20052;-79
2021/12/21 16:40:33;;;;;;;;;;;;;;;-1.57;88.57;100634.44;8165134;29;20504;-78
2021/12/21 16:44:35;;;;;;;9.48;5.10;;;;;;;-1.61;88.86;100633.91;8146551;29;19915;-78
2021/12/21 16:48:39;;;;;;;11.85;6.00;;;;;;;-1.66;89.43;100629.94;8146857;29;20516;-78
2021/12/21 16:52:39;;;;;;;9.18;5.60;;;;;;;-1.66;89.49;100640.75;8161208;29;20074;-79
2021/12/21 16:56:41;;;;;;;13.15;5.35;;;;;;;-1.66;89.48;100632.66;8151648;29;20123;-79
2021/12/21 17:00:42;;;;;;;12.38;5.55;;;;;;;-1.69;89.02;100633.81;8155969;29;20413;-78
2021/12/21 17:04:42;;;;;;;9.45;4.90;;;;;;;-1.68;89.71;100638.19;8143087;29;20043;-80
2021/12/21 17:08:44;;;;;;;17.75;7.35;;;;;;;-1.66;90.43;100630.78;8157842;29;20040;-79
2021/12/21 17:12:47;;;;;;;14.85;8.95;;;;;;;-1.67;90.46;100629.06;8174495;29;20138;-79
2021/12/21 17:16:47;;;;;;;9.73;4.83;;;;;;;-1.67;90.89;100630.94;8169416;29;20044;-79
2021/12/21 17:20:47;;;;;;;16.45;6.72;;;;;;;-1.68;89.98;100634.66;8166625;29;20080;-79
2021/12/21 17:24:49;;;;;;;16.65;6.88;;;;;;;-1.68;89.57;100637.34;8176108;29;21577;-79
2021/12/21 17:28:49;;;;;;;9.50;6.43;;;;;;;-1.70;90.25;100648.28;8179774;29;20469;-79
2021/12/21 17:32:50;;;;;;;11.75;5.75;;;;;;;-1.69;89.96;100638.34;8163534;29;20059;-80
2021/12/21 17:36:52;;;;;;;13.55;5.55;;;;;;;-1.66;90.28;100641.59;8175141;29;20047;-80
2021/12/21 17:40:52;;;;;;;46.13;19.40;;;;;;;-1.62;92.19;100645.69;8182953;29;20133;-80
2021/12/21 17:44:53;;;;;;;52.70;20.75;;;;;;;-1.60;91.58;100645.56;8162219;29;20055;-79
2021/12/21 17:48:55;;;;;;;74.60;30.13;;;;;;;-1.63;90.87;100648.56;8169061;29;20127;-80
2021/12/21 17:52:55;;;;;;;25.98;12.65;;;;;;;-1.65;90.37;100656.81;8170245;29;20051;-80
2021/12/21 17:56:56;;;;;;;38.80;19.05;;;;;;;-1.63;90.47;100654.81;8162938;29;20048;-80
2021/12/21 18:00:57;;;;;;;22.30;11.80;;;;;;;-1.63;90.66;100654.81;8147693;29;20086;-80
2021/12/21 18:04:57;;;;;;;18.60;9.55;;;;;;;-1.64;90.85;100660.34;8163886;29;20051;-81
2021/12/21 18:08:58;;;;;;;16.05;8.30;;;;;;;-1.67;90.86;100663.34;8160527;29;20087;-80
2021/12/21 18:12:58;;;;;;;13.20;6.22;;;;;;;-1.71;90.95;100660.13;8150730;29;20043;-80
2021/12/21 18:17:00;;;;;;;11.80;4.53;;;;;;;-1.72;90.56;100668.38;8149847;29;20081;-80
2021/12/21 18:21:01;;;;;;;6.70;3.22;;;;;;;-1.73;90.81;100662.09;8142340;29;20473;-80
2021/12/21 18:25:04;;;;;;;8.55;4.65;;;;;;;-1.74;90.53;100659.56;8186149;29;20050;-79
2021/12/21 18:29:06;;;;;;;7.65;4.20;;;;;;;-1.78;90.91;100661.72;8163074;29;20039;-80
2021/12/21 18:33:07;;;;;;;9.90;4.70;;;;;;;-1.82;90.76;100652.19;8155362;29;20040;-80
2021/12/21 18:37:09;;;;;;;11.90;4.57;;;;;;;-1.86;90.22;100648.94;8174991;29;20066;-80
2021/12/21 18:41:09;;;;;;;13.50;5.33;;;;;;;-1.90;90.32;100660.22;8175285;29;20043;-80
2021/12/21 18:45:11;;;;;;;10.05;4.30;;;;;;;-1.95;91.12;100666.03;8166462;29;20035;-80
2021/12/21 18:49:14;;;;;;;8.77;4.22;;;;;;;-1.96;91.27;100667.06;8169426;29;20066;-80
2021/12/21 18:53:16;;;;;;;8.95;3.72;;;;;;;-1.98;90.88;100681.69;8151525;29;20028;-80
2021/12/21 18:57:20;;;;;;;8.10;3.97;;;;;;;-2.03;91.22;100686.69;8168272;29;20048;-78
2021/12/21 19:01:34;;;;;;;8.93;4.70;;;;;;;-2.07;90.63;100683.44;8161781;29;20059;-80
2021/12/21 19:05:37;;;;;;;13.70;5.60;;;;;;;-2.08;91.61;100684.44;8192806;29;20051;-80
2021/12/21 19:09:38;;;;;;;10.00;4.28;;;;;;;-2.08;91.06;100687.16;8193703;29;20062;-79
2021/12/21 19:13:39;;;;;;;8.77;3.85;;;;;;;-2.12;91.61;100696.50;8166475;29;20539;-80
2021/12/21 19:17:40;;;;;;;6.05;3.35;;;;;;;-2.15;91.81;100700.34;8164792;29;20636;-80
2021/12/21 19:21:40;;;;;;;7.03;3.70;;;;;;;-2.18;91.58;100697.09;8150522;29;20524;-80
2021/12/21 19:25:41;;;;;;;10.65;5.18;;;;;;;-2.21;91.58;100703.63;8152643;29;20032;-79
2021/12/21 19:29:42;;;;;;;8.55;4.93;;;;;;;-2.23;91.50;100704.78;8173792;29;20091;-80
2021/12/21 19:33:42;;;;;;;9.95;4.30;;;;;;;-2.27;91.15;100704.22;8166969;29;20048;-80
2021/12/21 19:37:43;;;;;;;9.50;3.97;;;;;;;-2.31;91.65;100703.66;8178935;29;20040;-79
2021/12/21 19:41:44;;;;;;;10.70;3.60;;;;;;;-2.34;91.96;100708.50;8157816;29;20599;-80
2021/12/21 19:45:45;;;;;;;6.93;3.53;;;;;;;-2.37;91.80;100706.94;8153625;29;20063;-80
2021/12/21 19:49:45;;;;;;;5.45;3.28;;;;;;;-2.42;92.08;100720.00;8143621;29;20044;-80
2021/12/21 19:53:46;;;;;;;7.10;4.00;;;;;;;-2.46;92.20;100721.31;8162168;29;20071;-80
2021/12/21 19:57:48;;;;;;;7.70;3.80;;;;;;;-2.50;92.38;100713.63;8168083;29;20051;-81
2021/12/21 20:01:48;;;;;;;12.32;4.22;;;;;;;-2.55;92.66;100716.78;8153716;29;20135;-80